sensor_id;sensor_type;location;lat;lon;timestamp;temperature;humidity
59771;DHT22;45649;53.014;6.600;2022-08-25T00:01:06;22.80;73.90
59771;DHT22;45649;53.014;6.600;2022-08-25T00:03:33;22.80;73.90
59771;DHT22;45649;53.014;6.600;2022-08-25T00:05:58;22.70;74.00
59771;DHT22;45649;53.014;6.600;2022-08-25T00:08:24;22.70;74.00
59771;DHT22;45649;53.014;6.600;2022-08-25T00:10:50;22.70;74.10
59771;DHT22;45649;53.014;6.600;2022-08-25T00:13:16;22.60;74.10
59771;DHT22;45649;53.014;6.600;2022-08-25T00:15:41;22.60;73.70
59771;DHT22;45649;53.014;6.600;2022-08-25T00:18:07;22.60;73.90
59771;DHT22;45649;53.014;6.600;2022-08-25T00:20:33;22.60;73.80
59771;DHT22;45649;53.014;6.600;2022-08-25T00:23:00;22.50;74.10
59771;DHT22;45649;53.014;6.600;2022-08-25T00:25:26;22.50;74.00
59771;DHT22;45649;53.014;6.600;2022-08-25T00:27:52;22.50;74.10
59771;DHT22;45649;53.014;6.600;2022-08-25T00:30:18;22.50;74.30
59771;DHT22;45649;53.014;6.600;2022-08-25T00:32:45;22.40;74.40
59771;DHT22;45649;53.014;6.600;2022-08-25T00:35:11;22.50;74.70
59771;DHT22;45649;53.014;6.600;2022-08-25T00:37:36;22.50;74.50
59771;DHT22;45649;53.014;6.600;2022-08-25T00:40:05;22.40;74.90
59771;DHT22;45649;53.014;6.600;2022-08-25T00:42:31;22.30;76.10
59771;DHT22;45649;53.014;6.600;2022-08-25T00:44:57;22.30;75.80
59771;DHT22;45649;53.014;6.600;2022-08-25T00:47:24;22.30;75.90
59771;DHT22;45649;53.014;6.600;2022-08-25T00:49:57;22.30;76.20
59771;DHT22;45649;53.014;6.600;2022-08-25T00:52:28;22.20;77.00
59771;DHT22;45649;53.014;6.600;2022-08-25T00:54:59;22.40;77.20
59771;DHT22;45649;53.014;6.600;2022-08-25T00:57:33;22.20;77.00
59771;DHT22;45649;53.014;6.600;2022-08-25T01:00:08;22.10;76.80
59771;DHT22;45649;53.014;6.600;2022-08-25T01:02:35;22.00;76.90
59771;DHT22;45649;53.014;6.600;2022-08-25T01:05:02;22.00;77.40
59771;DHT22;45649;53.014;6.600;2022-08-25T01:07:28;21.90;77.60
59771;DHT22;45649;53.014;6.600;2022-08-25T01:09:54;21.90;77.50
59771;DHT22;45649;53.014;6.600;2022-08-25T01:12:20;21.90;77.20
59771;DHT22;45649;53.014;6.600;2022-08-25T01:14:47;22.00;76.30
59771;DHT22;45649;53.014;6.600;2022-08-25T01:17:14;21.90;75.70
59771;DHT22;45649;53.014;6.600;2022-08-25T01:19:40;22.00;75.30
59771;DHT22;45649;53.014;6.600;2022-08-25T01:22:06;22.00;76.00
59771;DHT22;45649;53.014;6.600;2022-08-25T01:25:04;21.90;75.20
59771;DHT22;45649;53.014;6.600;2022-08-25T01:27:32;22.00;75.20
59771;DHT22;45649;53.014;6.600;2022-08-25T01:29:58;21.90;75.60
59771;DHT22;45649;53.014;6.600;2022-08-25T01:32:24;21.90;76.10
59771;DHT22;45649;53.014;6.600;2022-08-25T01:34:49;21.90;76.70
59771;DHT22;45649;53.014;6.600;2022-08-25T01:37:16;21.80;76.90
59771;DHT22;45649;53.014;6.600;2022-08-25T01:39:43;21.80;77.10
59771;DHT22;45649;53.014;6.600;2022-08-25T01:42:23;21.80;77.00
59771;DHT22;45649;53.014;6.600;2022-08-25T01:44:52;21.70;77.10
59771;DHT22;45649;53.014;6.600;2022-08-25T01:47:18;21.70;76.60
59771;DHT22;45649;53.014;6.600;2022-08-25T01:49:44;21.70;76.20
59771;DHT22;45649;53.014;6.600;2022-08-25T01:54:40;21.70;75.70
59771;DHT22;45649;53.014;6.600;2022-08-25T01:57:05;21.70;75.60
59771;DHT22;45649;53.014;6.600;2022-08-25T01:59:31;21.70;75.60
59771;DHT22;45649;53.014;6.600;2022-08-25T02:04:33;21.60;76.00
59771;DHT22;45649;53.014;6.600;2022-08-25T02:07:00;21.60;76.30
59771;DHT22;45649;53.014;6.600;2022-08-25T02:09:26;21.60;76.50
59771;DHT22;45649;53.014;6.600;2022-08-25T02:11:52;21.50;76.20
59771;DHT22;45649;53.014;6.600;2022-08-25T02:14:17;21.50;76.30
59771;DHT22;45649;53.014;6.600;2022-08-25T02:16:46;21.50;76.00
59771;DHT22;45649;53.014;6.600;2022-08-25T02:19:14;21.40;76.20
59771;DHT22;45649;53.014;6.600;2022-08-25T02:21:41;21.50;75.50
59771;DHT22;45649;53.014;6.600;2022-08-25T02:24:07;21.50;74.80
59771;DHT22;45649;53.014;6.600;2022-08-25T02:26:34;21.50;74.50
59771;DHT22;45649;53.014;6.600;2022-08-25T02:29:02;21.50;74.50
59771;DHT22;45649;53.014;6.600;2022-08-25T02:31:28;21.50;74.40
59771;DHT22;45649;53.014;6.600;2022-08-25T02:33:54;21.50;74.50
59771;DHT22;45649;53.014;6.600;2022-08-25T02:36:21;21.40;74.80
59771;DHT22;45649;53.014;6.600;2022-08-25T02:38:48;21.30;74.60
59771;DHT22;45649;53.014;6.600;2022-08-25T02:41:17;21.20;74.60
59771;DHT22;45649;53.014;6.600;2022-08-25T02:43:45;21.20;74.70
59771;DHT22;45649;53.014;6.600;2022-08-25T02:46:13;21.20;75.10
59771;DHT22;45649;53.014;6.600;2022-08-25T02:48:39;21.20;75.00
59771;DHT22;45649;53.014;6.600;2022-08-25T02:51:08;21.20;75.00
59771;DHT22;45649;53.014;6.600;2022-08-25T02:53:35;21.20;75.00
59771;DHT22;45649;53.014;6.600;2022-08-25T02:56:04;21.20;75.10
59771;DHT22;45649;53.014;6.600;2022-08-25T02:58:31;21.10;75.00
59771;DHT22;45649;53.014;6.600;2022-08-25T03:00:57;21.10;74.70
59771;DHT22;45649;53.014;6.600;2022-08-25T03:03:23;21.20;74.80
59771;DHT22;45649;53.014;6.600;2022-08-25T03:05:49;21.10;74.70
59771;DHT22;45649;53.014;6.600;2022-08-25T03:08:14;21.20;74.40
59771;DHT22;45649;53.014;6.600;2022-08-25T03:10:40;21.10;74.80
59771;DHT22;45649;53.014;6.600;2022-08-25T03:13:06;21.10;74.80
59771;DHT22;45649;53.014;6.600;2022-08-25T03:15:32;21.00;75.20
59771;DHT22;45649;53.014;6.600;2022-08-25T03:18:00;21.00;75.20
59771;DHT22;45649;53.014;6.600;2022-08-25T03:20:27;20.90;75.20
59771;DHT22;45649;53.014;6.600;2022-08-25T03:22:53;20.90;75.40
59771;DHT22;45649;53.014;6.600;2022-08-25T03:25:18;20.90;75.10
59771;DHT22;45649;53.014;6.600;2022-08-25T03:28:03;20.90;74.90
59771;DHT22;45649;53.014;6.600;2022-08-25T03:30:29;20.90;75.00
59771;DHT22;45649;53.014;6.600;2022-08-25T03:32:55;20.90;74.20
59771;DHT22;45649;53.014;6.600;2022-08-25T03:35:21;20.90;73.60
59771;DHT22;45649;53.014;6.600;2022-08-25T03:37:47;20.90;73.30
59771;DHT22;45649;53.014;6.600;2022-08-25T03:40:14;20.90;73.50
59771;DHT22;45649;53.014;6.600;2022-08-25T03:42:43;20.90;73.50
59771;DHT22;45649;53.014;6.600;2022-08-25T03:45:10;20.80;73.80
59771;DHT22;45649;53.014;6.600;2022-08-25T03:47:38;20.80;73.60
59771;DHT22;45649;53.014;6.600;2022-08-25T03:50:06;20.70;73.10
59771;DHT22;45649;53.014;6.600;2022-08-25T03:52:33;20.70;73.20
59771;DHT22;45649;53.014;6.600;2022-08-25T03:54:59;20.70;73.70
59771;DHT22;45649;53.014;6.600;2022-08-25T03:57:25;20.60;73.40
59771;DHT22;45649;53.014;6.600;2022-08-25T03:59:51;20.60;73.20
59771;DHT22;45649;53.014;6.600;2022-08-25T04:02:17;20.60;73.30
59771;DHT22;45649;53.014;6.600;2022-08-25T04:04:43;20.60;73.50
59771;DHT22;45649;53.014;6.600;2022-08-25T04:07:08;20.60;73.50
59771;DHT22;45649;53.014;6.600;2022-08-25T04:09:34;20.50;73.20
59771;DHT22;45649;53.014;6.600;2022-08-25T04:12:00;20.50;73.00
59771;DHT22;45649;53.014;6.600;2022-08-25T04:14:26;20.50;72.50
59771;DHT22;45649;53.014;6.600;2022-08-25T04:16:52;20.40;72.80
59771;DHT22;45649;53.014;6.600;2022-08-25T04:19:18;20.40;72.90
59771;DHT22;45649;53.014;6.600;2022-08-25T04:21:44;20.40;73.50
59771;DHT22;45649;53.014;6.600;2022-08-25T04:24:11;20.30;72.80
59771;DHT22;45649;53.014;6.600;2022-08-25T04:26:46;20.30;72.90
59771;DHT22;45649;53.014;6.600;2022-08-25T04:29:14;20.30;72.40
59771;DHT22;45649;53.014;6.600;2022-08-25T04:31:43;20.50;70.90
59771;DHT22;45649;53.014;6.600;2022-08-25T04:34:11;20.40;71.40
59771;DHT22;45649;53.014;6.600;2022-08-25T04:36:38;20.30;71.70
59771;DHT22;45649;53.014;6.600;2022-08-25T04:39:04;20.30;71.60
59771;DHT22;45649;53.014;6.600;2022-08-25T04:41:30;20.20;71.60
59771;DHT22;45649;53.014;6.600;2022-08-25T04:43:57;20.20;71.40
59771;DHT22;45649;53.014;6.600;2022-08-25T04:46:28;20.10;71.30
59771;DHT22;45649;53.014;6.600;2022-08-25T04:48:56;20.10;70.90
59771;DHT22;45649;53.014;6.600;2022-08-25T04:51:27;20.10;70.90
59771;DHT22;45649;53.014;6.600;2022-08-25T04:53:54;20.00;70.80
59771;DHT22;45649;53.014;6.600;2022-08-25T04:56:22;20.00;70.70
59771;DHT22;45649;53.014;6.600;2022-08-25T04:58:52;20.00;70.70
59771;DHT22;45649;53.014;6.600;2022-08-25T05:01:21;20.10;70.60
59771;DHT22;45649;53.014;6.600;2022-08-25T05:03:51;20.10;70.60
59771;DHT22;45649;53.014;6.600;2022-08-25T05:06:17;20.10;70.70
59771;DHT22;45649;53.014;6.600;2022-08-25T05:08:43;20.10;70.70
59771;DHT22;45649;53.014;6.600;2022-08-25T05:11:11;20.20;70.40
59771;DHT22;45649;53.014;6.600;2022-08-25T05:13:38;20.10;70.40
59771;DHT22;45649;53.014;6.600;2022-08-25T05:16:04;20.20;70.10
59771;DHT22;45649;53.014;6.600;2022-08-25T05:18:32;20.30;70.30
59771;DHT22;45649;53.014;6.600;2022-08-25T05:21:03;20.20;70.20
59771;DHT22;45649;53.014;6.600;2022-08-25T05:23:29;20.20;70.20
59771;DHT22;45649;53.014;6.600;2022-08-25T05:25:59;20.10;70.20
59771;DHT22;45649;53.014;6.600;2022-08-25T05:28:25;20.20;70.30
59771;DHT22;45649;53.014;6.600;2022-08-25T05:30:57;20.30;70.30
59771;DHT22;45649;53.014;6.600;2022-08-25T05:33:24;20.30;70.30
59771;DHT22;45649;53.014;6.600;2022-08-25T05:35:49;20.50;69.90
59771;DHT22;45649;53.014;6.600;2022-08-25T05:38:16;20.40;70.00
59771;DHT22;45649;53.014;6.600;2022-08-25T05:40:42;20.50;70.00
59771;DHT22;45649;53.014;6.600;2022-08-25T05:43:08;20.50;70.00
59771;DHT22;45649;53.014;6.600;2022-08-25T05:45:34;20.50;69.70
59771;DHT22;45649;53.014;6.600;2022-08-25T05:48:00;20.40;70.00
59771;DHT22;45649;53.014;6.600;2022-08-25T05:50:26;20.50;70.20
59771;DHT22;45649;53.014;6.600;2022-08-25T05:52:52;20.60;69.90
59771;DHT22;45649;53.014;6.600;2022-08-25T05:55:19;20.60;70.00
59771;DHT22;45649;53.014;6.600;2022-08-25T05:57:44;20.60;70.50
59771;DHT22;45649;53.014;6.600;2022-08-25T06:00:11;20.60;70.10
59771;DHT22;45649;53.014;6.600;2022-08-25T06:02:38;20.60;70.20
59771;DHT22;45649;53.014;6.600;2022-08-25T06:05:20;20.60;70.70
59771;DHT22;45649;53.014;6.600;2022-08-25T06:07:47;20.60;70.60
59771;DHT22;45649;53.014;6.600;2022-08-25T06:10:14;20.60;70.60
59771;DHT22;45649;53.014;6.600;2022-08-25T06:12:41;20.70;70.50
59771;DHT22;45649;53.014;6.600;2022-08-25T06:15:12;20.80;70.80
59771;DHT22;45649;53.014;6.600;2022-08-25T06:17:38;20.90;70.80
59771;DHT22;45649;53.014;6.600;2022-08-25T06:20:08;21.00;70.00
59771;DHT22;45649;53.014;6.600;2022-08-25T06:22:34;21.00;70.50
59771;DHT22;45649;53.014;6.600;2022-08-25T06:25:05;21.00;71.40
59771;DHT22;45649;53.014;6.600;2022-08-25T06:27:32;21.20;69.80
59771;DHT22;45649;53.014;6.600;2022-08-25T06:29:58;21.20;70.10
59771;DHT22;45649;53.014;6.600;2022-08-25T06:32:30;21.20;69.60
59771;DHT22;45649;53.014;6.600;2022-08-25T06:34:57;21.30;69.70
59771;DHT22;45649;53.014;6.600;2022-08-25T06:37:24;21.30;69.50
59771;DHT22;45649;53.014;6.600;2022-08-25T06:39:49;21.40;69.40
59771;DHT22;45649;53.014;6.600;2022-08-25T06:42:15;21.50;68.70
59771;DHT22;45649;53.014;6.600;2022-08-25T06:44:41;21.50;69.00
59771;DHT22;45649;53.014;6.600;2022-08-25T06:47:07;21.50;68.90
59771;DHT22;45649;53.014;6.600;2022-08-25T06:49:32;21.50;69.00
59771;DHT22;45649;53.014;6.600;2022-08-25T06:51:58;21.60;69.30
59771;DHT22;45649;53.014;6.600;2022-08-25T06:54:24;21.60;69.20
59771;DHT22;45649;53.014;6.600;2022-08-25T06:56:50;21.70;69.00
59771;DHT22;45649;53.014;6.600;2022-08-25T06:59:16;21.70;69.50
59771;DHT22;45649;53.014;6.600;2022-08-25T07:01:42;21.80;69.40
59771;DHT22;45649;53.014;6.600;2022-08-25T07:04:08;21.80;69.20
59771;DHT22;45649;53.014;6.600;2022-08-25T07:06:34;21.90;69.10
59771;DHT22;45649;53.014;6.600;2022-08-25T07:09:00;21.90;69.30
59771;DHT22;45649;53.014;6.600;2022-08-25T07:11:27;22.10;69.30
59771;DHT22;45649;53.014;6.600;2022-08-25T07:13:53;22.10;69.30
59771;DHT22;45649;53.014;6.600;2022-08-25T07:16:20;22.20;69.20
59771;DHT22;45649;53.014;6.600;2022-08-25T07:18:46;22.30;68.20
59771;DHT22;45649;53.014;6.600;2022-08-25T07:21:13;22.30;67.00
59771;DHT22;45649;53.014;6.600;2022-08-25T07:23:40;22.40;67.30
59771;DHT22;45649;53.014;6.600;2022-08-25T07:26:12;22.50;66.90
59771;DHT22;45649;53.014;6.600;2022-08-25T07:28:39;22.50;66.30
59771;DHT22;45649;53.014;6.600;2022-08-25T07:31:05;22.60;66.10
59771;DHT22;45649;53.014;6.600;2022-08-25T07:33:31;22.60;65.40
59771;DHT22;45649;53.014;6.600;2022-08-25T07:35:57;22.70;65.90
59771;DHT22;45649;53.014;6.600;2022-08-25T07:38:23;22.70;65.10
59771;DHT22;45649;53.014;6.600;2022-08-25T07:40:49;22.80;65.20
59771;DHT22;45649;53.014;6.600;2022-08-25T07:43:20;22.80;66.00
59771;DHT22;45649;53.014;6.600;2022-08-25T07:45:49;22.80;65.30
59771;DHT22;45649;53.014;6.600;2022-08-25T07:48:16;22.90;65.20
59771;DHT22;45649;53.014;6.600;2022-08-25T07:50:44;22.90;65.60
59771;DHT22;45649;53.014;6.600;2022-08-25T07:53:12;23.00;66.00
59771;DHT22;45649;53.014;6.600;2022-08-25T07:55:38;23.10;65.50
59771;DHT22;45649;53.014;6.600;2022-08-25T07:58:05;23.20;65.50
59771;DHT22;45649;53.014;6.600;2022-08-25T08:00:33;23.30;65.20
59771;DHT22;45649;53.014;6.600;2022-08-25T08:03:06;23.30;65.30
59771;DHT22;45649;53.014;6.600;2022-08-25T08:05:32;23.40;64.90
59771;DHT22;45649;53.014;6.600;2022-08-25T08:07:58;23.50;64.50
59771;DHT22;45649;53.014;6.600;2022-08-25T08:10:24;23.50;64.80
59771;DHT22;45649;53.014;6.600;2022-08-25T08:12:51;23.60;65.10
59771;DHT22;45649;53.014;6.600;2022-08-25T08:15:17;23.60;63.80
59771;DHT22;45649;53.014;6.600;2022-08-25T08:17:44;23.70;63.80
59771;DHT22;45649;53.014;6.600;2022-08-25T08:20:10;23.80;63.70
59771;DHT22;45649;53.014;6.600;2022-08-25T08:22:39;23.80;63.70
59771;DHT22;45649;53.014;6.600;2022-08-25T08:25:06;23.90;64.10
59771;DHT22;45649;53.014;6.600;2022-08-25T08:27:32;24.00;64.20
59771;DHT22;45649;53.014;6.600;2022-08-25T08:29:59;24.10;64.10
59771;DHT22;45649;53.014;6.600;2022-08-25T08:32:25;24.20;64.00
59771;DHT22;45649;53.014;6.600;2022-08-25T08:34:51;24.30;63.50
59771;DHT22;45649;53.014;6.600;2022-08-25T08:37:17;24.40;63.60
59771;DHT22;45649;53.014;6.600;2022-08-25T08:39:43;24.40;63.10
59771;DHT22;45649;53.014;6.600;2022-08-25T08:53:15;25.00;61.40
59771;DHT22;45649;53.014;6.600;2022-08-25T08:55:47;25.10;61.20
59771;DHT22;45649;53.014;6.600;2022-08-25T08:58:23;25.10;61.30
59771;DHT22;45649;53.014;6.600;2022-08-25T09:00:55;25.20;61.30
59771;DHT22;45649;53.014;6.600;2022-08-25T09:06:06;25.50;59.90
59771;DHT22;45649;53.014;6.600;2022-08-25T09:08:32;25.60;60.00
59771;DHT22;45649;53.014;6.600;2022-08-25T09:24:16;26.30;57.50
59771;DHT22;45649;53.014;6.600;2022-08-25T09:29:21;26.50;55.40
59771;DHT22;45649;53.014;6.600;2022-08-25T09:31:48;26.50;56.00
59771;DHT22;45649;53.014;6.600;2022-08-25T09:34:20;26.70;54.70
59771;DHT22;45649;53.014;6.600;2022-08-25T09:36:46;26.80;54.10
59771;DHT22;45649;53.014;6.600;2022-08-25T09:39:15;27.00;54.20
59771;DHT22;45649;53.014;6.600;2022-08-25T09:41:51;27.10;52.90
59771;DHT22;45649;53.014;6.600;2022-08-25T09:44:22;27.10;53.00
59771;DHT22;45649;53.014;6.600;2022-08-25T09:49:55;27.30;51.80
59771;DHT22;45649;53.014;6.600;2022-08-25T09:54:55;27.40;49.90
59771;DHT22;45649;53.014;6.600;2022-08-25T09:57:42;27.50;50.50
59771;DHT22;45649;53.014;6.600;2022-08-25T10:02:35;27.50;50.70
59771;DHT22;45649;53.014;6.600;2022-08-25T10:05:17;27.60;49.20
59771;DHT22;45649;53.014;6.600;2022-08-25T10:08:12;27.60;48.20
59771;DHT22;45649;53.014;6.600;2022-08-25T10:10:43;27.70;49.30
59771;DHT22;45649;53.014;6.600;2022-08-25T10:13:17;27.80;50.50
59771;DHT22;45649;53.014;6.600;2022-08-25T10:15:43;27.90;50.90
59771;DHT22;45649;53.014;6.600;2022-08-25T10:18:26;27.90;50.70
59771;DHT22;45649;53.014;6.600;2022-08-25T10:21:13;28.00;50.60
59771;DHT22;45649;53.014;6.600;2022-08-25T10:23:45;28.00;49.10
59771;DHT22;45649;53.014;6.600;2022-08-25T10:42:35;28.30;51.60
59771;DHT22;45649;53.014;6.600;2022-08-25T10:45:18;28.30;48.80
59771;DHT22;45649;53.014;6.600;2022-08-25T10:54:28;28.50;53.00
59771;DHT22;45649;53.014;6.600;2022-08-25T10:57:06;28.50;48.50
59771;DHT22;45649;53.014;6.600;2022-08-25T11:05:25;28.70;49.60
59771;DHT22;45649;53.014;6.600;2022-08-25T11:08:37;28.70;46.80
59771;DHT22;45649;53.014;6.600;2022-08-25T11:16:41;28.80;53.00
59771;DHT22;45649;53.014;6.600;2022-08-25T11:19:30;28.90;50.20
59771;DHT22;45649;53.014;6.600;2022-08-25T11:24:40;29.10;51.60
59771;DHT22;45649;53.014;6.600;2022-08-25T11:27:18;29.10;49.00
59771;DHT22;45649;53.014;6.600;2022-08-25T11:30:09;29.10;49.20
59771;DHT22;45649;53.014;6.600;2022-08-25T11:32:36;29.10;45.20
59771;DHT22;45649;53.014;6.600;2022-08-25T11:35:06;29.10;47.00
59771;DHT22;45649;53.014;6.600;2022-08-25T11:37:43;29.10;46.30
59771;DHT22;45649;53.014;6.600;2022-08-25T11:40:16;29.20;48.50
59771;DHT22;45649;53.014;6.600;2022-08-25T11:51:29;29.30;45.30
59771;DHT22;45649;53.014;6.600;2022-08-25T11:56:59;29.20;46.70
59771;DHT22;45649;53.014;6.600;2022-08-25T12:02:34;29.30;45.70
59771;DHT22;45649;53.014;6.600;2022-08-25T12:10:24;29.60;47.50
59771;DHT22;45649;53.014;6.600;2022-08-25T12:12:59;29.40;42.50
59771;DHT22;45649;53.014;6.600;2022-08-25T12:18:14;29.50;43.30
59771;DHT22;45649;53.014;6.600;2022-08-25T12:23:30;29.40;43.40
59771;DHT22;45649;53.014;6.600;2022-08-25T12:26:03;29.60;45.10
59771;DHT22;45649;53.014;6.600;2022-08-25T12:28:42;29.60;43.00
59771;DHT22;45649;53.014;6.600;2022-08-25T12:37:12;29.50;42.40
59771;DHT22;45649;53.014;6.600;2022-08-25T12:47:42;29.70;44.00
59771;DHT22;45649;53.014;6.600;2022-08-25T12:50:27;29.70;44.70
59771;DHT22;45649;53.014;6.600;2022-08-25T12:52:54;29.70;41.60
59771;DHT22;45649;53.014;6.600;2022-08-25T12:55:25;29.70;45.10
59771;DHT22;45649;53.014;6.600;2022-08-25T12:57:53;29.70;42.90
59771;DHT22;45649;53.014;6.600;2022-08-25T13:00:32;29.70;43.10
59771;DHT22;45649;53.014;6.600;2022-08-25T13:08:35;29.80;44.20
59771;DHT22;45649;53.014;6.600;2022-08-25T13:11:18;29.90;45.10
59771;DHT22;45649;53.014;6.600;2022-08-25T13:14:11;30.00;46.60
59771;DHT22;45649;53.014;6.600;2022-08-25T13:16:39;30.00;41.00
59771;DHT22;45649;53.014;6.600;2022-08-25T13:19:05;30.10;46.20
59771;DHT22;45649;53.014;6.600;2022-08-25T13:21:37;30.10;47.80
59771;DHT22;45649;53.014;6.600;2022-08-25T13:26:54;30.20;44.70
59771;DHT22;45649;53.014;6.600;2022-08-25T13:29:26;30.30;44.50
59771;DHT22;45649;53.014;6.600;2022-08-25T13:34:31;30.30;44.80
59771;DHT22;45649;53.014;6.600;2022-08-25T13:37:08;30.30;41.90
59771;DHT22;45649;53.014;6.600;2022-08-25T13:40:22;30.30;42.30
59771;DHT22;45649;53.014;6.600;2022-08-25T13:42:54;30.30;42.00
59771;DHT22;45649;53.014;6.600;2022-08-25T13:45:23;30.40;45.30
59771;DHT22;45649;53.014;6.600;2022-08-25T13:47:50;30.40;45.10
59771;DHT22;45649;53.014;6.600;2022-08-25T13:53:04;30.30;42.60
59771;DHT22;45649;53.014;6.600;2022-08-25T13:58:02;30.40;45.00
59771;DHT22;45649;53.014;6.600;2022-08-25T14:03:35;30.50;43.80
59771;DHT22;45649;53.014;6.600;2022-08-25T14:08:37;30.40;44.00
59771;DHT22;45649;53.014;6.600;2022-08-25T14:11:59;30.50;38.30
59771;DHT22;45649;53.014;6.600;2022-08-25T14:14:02;30.40;39.90
59771;DHT22;45649;53.014;6.600;2022-08-25T14:16:32;30.40;42.50
59771;DHT22;45649;53.014;6.600;2022-08-25T14:19:01;30.50;44.00
59771;DHT22;45649;53.014;6.600;2022-08-25T14:21:30;30.50;43.70
59771;DHT22;45649;53.014;6.600;2022-08-25T14:23:57;30.60;45.80
59771;DHT22;45649;53.014;6.600;2022-08-25T14:26:23;30.60;43.10
59771;DHT22;45649;53.014;6.600;2022-08-25T14:28:49;30.60;42.30
59771;DHT22;45649;53.014;6.600;2022-08-25T14:31:26;30.50;38.50
59771;DHT22;45649;53.014;6.600;2022-08-25T14:36:28;30.40;42.00
59771;DHT22;45649;53.014;6.600;2022-08-25T14:38:54;30.40;44.60
59771;DHT22;45649;53.014;6.600;2022-08-25T14:41:21;30.50;45.70
59771;DHT22;45649;53.014;6.600;2022-08-25T14:43:48;30.60;43.90
59771;DHT22;45649;53.014;6.600;2022-08-25T14:46:22;30.60;40.10
59771;DHT22;45649;53.014;6.600;2022-08-25T14:48:53;30.50;43.10
59771;DHT22;45649;53.014;6.600;2022-08-25T14:51:20;30.50;43.90
59771;DHT22;45649;53.014;6.600;2022-08-25T14:53:47;30.50;44.10
59771;DHT22;45649;53.014;6.600;2022-08-25T14:56:13;30.50;44.00
59771;DHT22;45649;53.014;6.600;2022-08-25T14:58:39;30.50;44.50
59771;DHT22;45649;53.014;6.600;2022-08-25T15:01:05;30.60;46.40
59771;DHT22;45649;53.014;6.600;2022-08-25T15:03:36;30.60;45.10
59771;DHT22;45649;53.014;6.600;2022-08-25T15:06:03;30.70;45.40
59771;DHT22;45649;53.014;6.600;2022-08-25T15:08:30;30.70;45.40
59771;DHT22;45649;53.014;6.600;2022-08-25T15:11:14;30.70;44.10
59771;DHT22;45649;53.014;6.600;2022-08-25T15:13:40;30.70;46.20
59771;DHT22;45649;53.014;6.600;2022-08-25T15:16:06;30.60;43.90
59771;DHT22;45649;53.014;6.600;2022-08-25T15:18:33;30.60;44.10
59771;DHT22;45649;53.014;6.600;2022-08-25T15:20:59;30.60;46.00
59771;DHT22;45649;53.014;6.600;2022-08-25T15:23:25;30.60;45.40
59771;DHT22;45649;53.014;6.600;2022-08-25T15:25:53;30.60;43.80
59771;DHT22;45649;53.014;6.600;2022-08-25T15:28:20;30.60;44.10
59771;DHT22;45649;53.014;6.600;2022-08-25T15:30:46;30.60;43.80
59771;DHT22;45649;53.014;6.600;2022-08-25T15:33:12;30.60;45.30
59771;DHT22;45649;53.014;6.600;2022-08-25T15:35:38;30.60;44.80
59771;DHT22;45649;53.014;6.600;2022-08-25T15:38:04;30.60;45.90
59771;DHT22;45649;53.014;6.600;2022-08-25T15:40:30;30.60;44.70
59771;DHT22;45649;53.014;6.600;2022-08-25T15:42:56;30.40;42.80
59771;DHT22;45649;53.014;6.600;2022-08-25T15:45:22;30.30;42.00
59771;DHT22;45649;53.014;6.600;2022-08-25T15:47:48;30.30;42.90
59771;DHT22;45649;53.014;6.600;2022-08-25T15:50:16;30.30;45.40
59771;DHT22;45649;53.014;6.600;2022-08-25T15:52:42;30.30;44.00
59771;DHT22;45649;53.014;6.600;2022-08-25T15:55:09;30.30;43.70
59771;DHT22;45649;53.014;6.600;2022-08-25T15:57:35;30.30;44.10
59771;DHT22;45649;53.014;6.600;2022-08-25T16:00:03;30.30;44.90
59771;DHT22;45649;53.014;6.600;2022-08-25T16:02:28;30.30;44.80
59771;DHT22;45649;53.014;6.600;2022-08-25T16:04:54;30.30;43.20
59771;DHT22;45649;53.014;6.600;2022-08-25T16:07:20;30.20;43.90
59771;DHT22;45649;53.014;6.600;2022-08-25T16:09:46;30.30;43.40
59771;DHT22;45649;53.014;6.600;2022-08-25T16:12:11;30.30;45.30
59771;DHT22;45649;53.014;6.600;2022-08-25T16:14:37;30.30;44.40
59771;DHT22;45649;53.014;6.600;2022-08-25T16:17:04;30.30;45.70
59771;DHT22;45649;53.014;6.600;2022-08-25T16:19:30;30.30;45.00
59771;DHT22;45649;53.014;6.600;2022-08-25T16:21:56;30.30;46.20
59771;DHT22;45649;53.014;6.600;2022-08-25T16:24:22;30.30;44.90
59771;DHT22;45649;53.014;6.600;2022-08-25T16:26:48;30.30;43.00
59771;DHT22;45649;53.014;6.600;2022-08-25T16:29:15;30.20;43.90
59771;DHT22;45649;53.014;6.600;2022-08-25T16:31:41;30.20;44.60
59771;DHT22;45649;53.014;6.600;2022-08-25T16:34:07;30.20;45.30
59771;DHT22;45649;53.014;6.600;2022-08-25T16:36:33;30.10;44.20
59771;DHT22;45649;53.014;6.600;2022-08-25T16:38:58;30.10;43.80
59771;DHT22;45649;53.014;6.600;2022-08-25T16:41:29;30.10;44.90
59771;DHT22;45649;53.014;6.600;2022-08-25T16:44:00;30.10;44.10
59771;DHT22;45649;53.014;6.600;2022-08-25T16:46:26;30.00;45.00
59771;DHT22;45649;53.014;6.600;2022-08-25T16:48:52;30.00;45.00
59771;DHT22;45649;53.014;6.600;2022-08-25T16:51:20;30.00;46.00
59771;DHT22;45649;53.014;6.600;2022-08-25T16:53:46;30.00;45.90
59771;DHT22;45649;53.014;6.600;2022-08-25T16:56:37;30.00;45.50
59771;DHT22;45649;53.014;6.600;2022-08-25T16:59:08;30.00;46.10
59771;DHT22;45649;53.014;6.600;2022-08-25T17:01:34;30.00;45.90
59771;DHT22;45649;53.014;6.600;2022-08-25T17:04:01;30.10;43.10
59771;DHT22;45649;53.014;6.600;2022-08-25T17:06:28;30.00;43.20
59771;DHT22;45649;53.014;6.600;2022-08-25T17:08:55;30.00;45.30
59771;DHT22;45649;53.014;6.600;2022-08-25T17:11:29;29.90;46.00
59771;DHT22;45649;53.014;6.600;2022-08-25T17:13:57;29.90;45.20
59771;DHT22;45649;53.014;6.600;2022-08-25T17:16:26;29.90;46.00
59771;DHT22;45649;53.014;6.600;2022-08-25T17:18:55;29.90;45.00
59771;DHT22;45649;53.014;6.600;2022-08-25T17:21:24;29.90;45.00
59771;DHT22;45649;53.014;6.600;2022-08-25T17:23:54;29.90;44.80
59771;DHT22;45649;53.014;6.600;2022-08-25T17:26:20;29.80;46.00
59771;DHT22;45649;53.014;6.600;2022-08-25T17:28:46;29.80;46.60
59771;DHT22;45649;53.014;6.600;2022-08-25T17:31:13;29.80;48.20
59771;DHT22;45649;53.014;6.600;2022-08-25T17:33:39;29.70;48.00
59771;DHT22;45649;53.014;6.600;2022-08-25T17:36:06;29.70;48.10
59771;DHT22;45649;53.014;6.600;2022-08-25T17:38:32;29.70;47.20
59771;DHT22;45649;53.014;6.600;2022-08-25T17:41:00;29.70;48.30
59771;DHT22;45649;53.014;6.600;2022-08-25T17:43:28;29.70;49.30
59771;DHT22;45649;53.014;6.600;2022-08-25T17:45:54;29.70;48.50
59771;DHT22;45649;53.014;6.600;2022-08-25T17:48:22;29.70;46.20
59771;DHT22;45649;53.014;6.600;2022-08-25T17:50:49;29.60;47.20
59771;DHT22;45649;53.014;6.600;2022-08-25T17:53:15;29.60;46.10
59771;DHT22;45649;53.014;6.600;2022-08-25T17:55:42;29.30;47.60
59771;DHT22;45649;53.014;6.600;2022-08-25T17:58:13;29.20;48.10
59771;DHT22;45649;53.014;6.600;2022-08-25T18:00:40;29.10;48.50
59771;DHT22;45649;53.014;6.600;2022-08-25T18:03:06;29.00;49.00